sensor_id;sensor_type;location;lat;lon;timestamp;temperature;humidity
2767;DHT22;1391;46.74287300;11.63683300;2023-06-22T00:00:16;17.60;95.50
2767;DHT22;1391;46.74287300;11.63683300;2023-06-22T00:02:44;18.10;94.30
2767;DHT22;1391;46.74287300;11.63683300;2023-06-22T00:05:12;18.20;94.80
2767;DHT22;1391;46.74287300;11.63683300;2023-06-22T00:07:40;18.10;94.20
2767;DHT22;1391;46.74287300;11.63683300;2023-06-22T00:10:07;18.00;95.40
2767;DHT22;1391;46.74287300;11.63683300;2023-06-22T00:12:35;18.00;94.50
2767;DHT22;1391;46.74287300;11.63683300;2023-06-22T00:15:03;18.10;95.50
2767;DHT22;1391;46.74287300;11.63683300;2023-06-22T00:17:31;17.70;97.10
2767;DHT22;1391;46.74287300;11.63683300;2023-06-22T00:19:58;17.70;97.00
2767;DHT22;1391;46.74287300;11.63683300;2023-06-22T00:22:27;17.60;97.10
2767;DHT22;1391;46.74287300;11.63683300;2023-06-22T00:24:55;17.60;99.80
2767;DHT22;1391;46.74287300;11.63683300;2023-06-22T00:27:22;17.50;99.90
2767;DHT22;1391;46.74287300;11.63683300;2023-06-22T00:29:49;17.70;99.90
2767;DHT22;1391;46.74287300;11.63683300;2023-06-22T00:32:17;17.40;99.90
2767;DHT22;1391;46.74287300;11.63683300;2023-06-22T00:34:44;17.10;99.90
2767;DHT22;1391;46.74287300;11.63683300;2023-06-22T00:37:11;17.10;99.90
2767;DHT22;1391;46.74287300;11.63683300;2023-06-22T00:39:40;17.00;99.90
2767;DHT22;1391;46.74287300;11.63683300;2023-06-22T00:42:08;17.10;99.90
2767;DHT22;1391;46.74287300;11.63683300;2023-06-22T00:44:35;17.50;99.90
2767;DHT22;1391;46.74287300;11.63683300;2023-06-22T00:47:04;17.40;99.90
2767;DHT22;1391;46.74287300;11.63683300;2023-06-22T00:49:32;17.40;99.90
2767;DHT22;1391;46.74287300;11.63683300;2023-06-22T00:52:00;17.50;99.90
2767;DHT22;1391;46.74287300;11.63683300;2023-06-22T00:54:27;17.50;99.90
2767;DHT22;1391;46.74287300;11.63683300;2023-06-22T00:56:57;17.40;99.90
2767;DHT22;1391;46.74287300;11.63683300;2023-06-22T00:59:26;17.40;99.90
2767;DHT22;1391;46.74287300;11.63683300;2023-06-22T01:01:54;17.50;99.90
2767;DHT22;1391;46.74287300;11.63683300;2023-06-22T01:04:24;17.50;99.90
2767;DHT22;1391;46.74287300;11.63683300;2023-06-22T01:07:10;17.50;99.90
2767;DHT22;1391;46.74287300;11.63683300;2023-06-22T01:09:49;17.40;99.90
2767;DHT22;1391;46.74287300;11.63683300;2023-06-22T01:12:20;17.60;99.90
2767;DHT22;1391;46.74287300;11.63683300;2023-06-22T01:14:50;17.50;99.90
2767;DHT22;1391;46.74287300;11.63683300;2023-06-22T01:17:23;17.40;99.90
2767;DHT22;1391;46.74287300;11.63683300;2023-06-22T01:19:54;17.10;99.90
2767;DHT22;1391;46.74287300;11.63683300;2023-06-22T01:22:24;17.10;99.90
2767;DHT22;1391;46.74287300;11.63683300;2023-06-22T01:25:00;17.00;99.90
2767;DHT22;1391;46.74287300;11.63683300;2023-06-22T01:27:49;16.90;99.90
2767;DHT22;1391;46.74287300;11.63683300;2023-06-22T01:30:22;17.20;99.90
2767;DHT22;1391;46.74287300;11.63683300;2023-06-22T01:32:51;16.80;99.90
2767;DHT22;1391;46.74287300;11.63683300;2023-06-22T01:35:19;17.00;99.90
2767;DHT22;1391;46.74287300;11.63683300;2023-06-22T01:37:47;16.90;99.90
2767;DHT22;1391;46.74287300;11.63683300;2023-06-22T01:40:15;16.80;99.90
2767;DHT22;1391;46.74287300;11.63683300;2023-06-22T01:42:43;16.90;99.90
2767;DHT22;1391;46.74287300;11.63683300;2023-06-22T01:45:12;16.80;99.90
2767;DHT22;1391;46.74287300;11.63683300;2023-06-22T01:47:42;16.90;99.90
2767;DHT22;1391;46.74287300;11.63683300;2023-06-22T01:50:11;16.70;99.90
2767;DHT22;1391;46.74287300;11.63683300;2023-06-22T01:52:39;16.80;99.90
2767;DHT22;1391;46.74287300;11.63683300;2023-06-22T01:55:07;16.90;99.90
2767;DHT22;1391;46.74287300;11.63683300;2023-06-22T01:57:35;16.70;99.90
2767;DHT22;1391;46.74287300;11.63683300;2023-06-22T02:00:04;16.80;99.90
2767;DHT22;1391;46.74287300;11.63683300;2023-06-22T02:02:36;16.90;99.90
2767;DHT22;1391;46.74287300;11.63683300;2023-06-22T02:05:08;16.80;99.90
2767;DHT22;1391;46.74287300;11.63683300;2023-06-22T02:07:41;16.80;99.90
2767;DHT22;1391;46.74287300;11.63683300;2023-06-22T02:10:10;16.90;99.90
2767;DHT22;1391;46.74287300;11.63683300;2023-06-22T02:12:39;16.80;99.90
2767;DHT22;1391;46.74287300;11.63683300;2023-06-22T02:15:09;16.90;99.90
2767;DHT22;1391;46.74287300;11.63683300;2023-06-22T02:17:38;16.80;99.90
2767;DHT22;1391;46.74287300;11.63683300;2023-06-22T02:20:14;17.00;99.90
2767;DHT22;1391;46.74287300;11.63683300;2023-06-22T02:22:41;16.90;99.90
2767;DHT22;1391;46.74287300;11.63683300;2023-06-22T02:25:09;16.50;99.90
2767;DHT22;1391;46.74287300;11.63683300;2023-06-22T02:27:36;16.30;99.90
2767;DHT22;1391;46.74287300;11.63683300;2023-06-22T02:30:07;16.40;99.90
2767;DHT22;1391;46.74287300;11.63683300;2023-06-22T02:32:35;16.40;99.90
2767;DHT22;1391;46.74287300;11.63683300;2023-06-22T02:35:02;16.40;99.90
2767;DHT22;1391;46.74287300;11.63683300;2023-06-22T02:37:32;16.40;99.90
2767;DHT22;1391;46.74287300;11.63683300;2023-06-22T02:39:59;16.40;99.90
2767;DHT22;1391;46.74287300;11.63683300;2023-06-22T02:42:26;16.50;99.90
2767;DHT22;1391;46.74287300;11.63683300;2023-06-22T02:44:54;16.80;99.90
2767;DHT22;1391;46.74287300;11.63683300;2023-06-22T02:47:21;16.90;99.90
2767;DHT22;1391;46.74287300;11.63683300;2023-06-22T02:49:48;16.80;99.90
2767;DHT22;1391;46.74287300;11.63683300;2023-06-22T02:52:15;16.90;99.90
2767;DHT22;1391;46.74287300;11.63683300;2023-06-22T02:54:44;16.80;99.90
2767;DHT22;1391;46.74287300;11.63683300;2023-06-22T02:57:12;16.90;99.90
2767;DHT22;1391;46.74287300;11.63683300;2023-06-22T02:59:40;16.80;99.90
2767;DHT22;1391;46.74287300;11.63683300;2023-06-22T03:02:07;16.90;99.90
2767;DHT22;1391;46.74287300;11.63683300;2023-06-22T03:04:35;16.80;99.90
2767;DHT22;1391;46.74287300;11.63683300;2023-06-22T03:07:03;17.00;99.90
2767;DHT22;1391;46.74287300;11.63683300;2023-06-22T03:09:30;16.90;99.90
2767;DHT22;1391;46.74287300;11.63683300;2023-06-22T03:11:59;16.80;99.90
2767;DHT22;1391;46.74287300;11.63683300;2023-06-22T03:14:27;16.90;99.90
2767;DHT22;1391;46.74287300;11.63683300;2023-06-22T03:16:54;16.90;99.90
2767;DHT22;1391;46.74287300;11.63683300;2023-06-22T03:19:27;16.80;99.90
2767;DHT22;1391;46.74287300;11.63683300;2023-06-22T03:21:55;17.00;99.90
2767;DHT22;1391;46.74287300;11.63683300;2023-06-22T03:24:22;17.00;99.90
2767;DHT22;1391;46.74287300;11.63683300;2023-06-22T03:26:49;16.90;99.90
2767;DHT22;1391;46.74287300;11.63683300;2023-06-22T03:29:18;16.80;99.90
2767;DHT22;1391;46.74287300;11.63683300;2023-06-22T03:31:45;16.90;99.90
2767;DHT22;1391;46.74287300;11.63683300;2023-06-22T03:34:12;16.90;99.90
2767;DHT22;1391;46.74287300;11.63683300;2023-06-22T03:36:39;16.80;99.90
2767;DHT22;1391;46.74287300;11.63683300;2023-06-22T03:39:06;16.70;99.90
2767;DHT22;1391;46.74287300;11.63683300;2023-06-22T03:41:34;16.90;99.90
2767;DHT22;1391;46.74287300;11.63683300;2023-06-22T03:44:01;16.90;99.90
2767;DHT22;1391;46.74287300;11.63683300;2023-06-22T03:46:30;16.80;99.90
2767;DHT22;1391;46.74287300;11.63683300;2023-06-22T03:48:57;16.90;99.90
2767;DHT22;1391;46.74287300;11.63683300;2023-06-22T03:51:24;16.90;99.90
2767;DHT22;1391;46.74287300;11.63683300;2023-06-22T03:53:51;16.80;99.90
2767;DHT22;1391;46.74287300;11.63683300;2023-06-22T03:56:19;16.90;99.90
2767;DHT22;1391;46.74287300;11.63683300;2023-06-22T03:58:46;17.30;99.90
2767;DHT22;1391;46.74287300;11.63683300;2023-06-22T04:01:13;17.10;99.90
2767;DHT22;1391;46.74287300;11.63683300;2023-06-22T04:03:44;17.20;99.90
2767;DHT22;1391;46.74287300;11.63683300;2023-06-22T04:06:13;17.40;99.90
2767;DHT22;1391;46.74287300;11.63683300;2023-06-22T04:08:41;17.40;99.90
2767;DHT22;1391;46.74287300;11.63683300;2023-06-22T04:11:08;17.40;99.90
2767;DHT22;1391;46.74287300;11.63683300;2023-06-22T04:13:35;17.40;99.90
2767;DHT22;1391;46.74287300;11.63683300;2023-06-22T04:16:03;17.40;99.90
2767;DHT22;1391;46.74287300;11.63683300;2023-06-22T04:18:30;17.70;99.90
2767;DHT22;1391;46.74287300;11.63683300;2023-06-22T04:20:59;18.00;99.90
2767;DHT22;1391;46.74287300;11.63683300;2023-06-22T04:23:26;18.00;99.90
2767;DHT22;1391;46.74287300;11.63683300;2023-06-22T04:25:53;18.00;99.90
2767;DHT22;1391;46.74287300;11.63683300;2023-06-22T04:28:22;18.00;99.90
2767;DHT22;1391;46.74287300;11.63683300;2023-06-22T04:30:49;18.00;99.90
2767;DHT22;1391;46.74287300;11.63683300;2023-06-22T04:33:17;18.00;99.90
2767;DHT22;1391;46.74287300;11.63683300;2023-06-22T04:35:45;18.00;99.90
2767;DHT22;1391;46.74287300;11.63683300;2023-06-22T04:38:14;18.50;99.90
2767;DHT22;1391;46.74287300;11.63683300;2023-06-22T04:40:41;18.50;99.90
2767;DHT22;1391;46.74287300;11.63683300;2023-06-22T04:43:09;18.50;99.90
2767;DHT22;1391;46.74287300;11.63683300;2023-06-22T04:45:36;18.50;99.90
2767;DHT22;1391;46.74287300;11.63683300;2023-06-22T04:48:05;18.50;99.20
2767;DHT22;1391;46.74287300;11.63683300;2023-06-22T04:50:34;18.50;97.80
2767;DHT22;1391;46.74287300;11.63683300;2023-06-22T04:53:01;18.40;97.00
2767;DHT22;1391;46.74287300;11.63683300;2023-06-22T04:55:32;18.60;94.10
2767;DHT22;1391;46.74287300;11.63683300;2023-06-22T04:57:59;18.50;91.90
2767;DHT22;1391;46.74287300;11.63683300;2023-06-22T05:00:31;18.60;91.80
2767;DHT22;1391;46.74287300;11.63683300;2023-06-22T05:03:01;18.80;95.00
2767;DHT22;1391;46.74287300;11.63683300;2023-06-22T05:05:29;18.60;93.20
2767;DHT22;1391;46.74287300;11.63683300;2023-06-22T05:07:57;19.00;91.70
2767;DHT22;1391;46.74287300;11.63683300;2023-06-22T05:10:26;18.70;91.20
2767;DHT22;1391;46.74287300;11.63683300;2023-06-22T05:12:55;19.30;94.40
2767;DHT22;1391;46.74287300;11.63683300;2023-06-22T05:15:22;19.10;91.90
2767;DHT22;1391;46.74287300;11.63683300;2023-06-22T05:17:53;19.30;94.30
2767;DHT22;1391;46.74287300;11.63683300;2023-06-22T05:20:20;19.10;90.20
2767;DHT22;1391;46.74287300;11.63683300;2023-06-22T05:22:48;19.20;89.00
2767;DHT22;1391;46.74287300;11.63683300;2023-06-22T05:25:15;19.20;88.60
2767;DHT22;1391;46.74287300;11.63683300;2023-06-22T05:27:43;19.30;91.10
2767;DHT22;1391;46.74287300;11.63683300;2023-06-22T05:30:12;19.20;90.40
2767;DHT22;1391;46.74287300;11.63683300;2023-06-22T05:32:41;19.60;89.00
2767;DHT22;1391;46.74287300;11.63683300;2023-06-22T05:35:09;19.60;87.80
2767;DHT22;1391;46.74287300;11.63683300;2023-06-22T05:37:37;19.70;85.80
2767;DHT22;1391;46.74287300;11.63683300;2023-06-22T05:40:05;19.70;87.40
2767;DHT22;1391;46.74287300;11.63683300;2023-06-22T05:42:35;19.80;83.70
2767;DHT22;1391;46.74287300;11.63683300;2023-06-22T05:45:04;19.60;85.40
2767;DHT22;1391;46.74287300;11.63683300;2023-06-22T05:47:34;19.90;90.00
2767;DHT22;1391;46.74287300;11.63683300;2023-06-22T05:50:01;19.90;84.20
2767;DHT22;1391;46.74287300;11.63683300;2023-06-22T05:52:32;20.00;82.20
2767;DHT22;1391;46.74287300;11.63683300;2023-06-22T05:55:00;19.70;80.00
2767;DHT22;1391;46.74287300;11.63683300;2023-06-22T05:57:29;19.70;81.00
2767;DHT22;1391;46.74287300;11.63683300;2023-06-22T05:59:57;19.70;79.20
2767;DHT22;1391;46.74287300;11.63683300;2023-06-22T06:02:24;19.80;79.00
2767;DHT22;1391;46.74287300;11.63683300;2023-06-22T06:04:53;19.70;91.00
2767;DHT22;1391;46.74287300;11.63683300;2023-06-22T06:07:21;19.80;84.70
2767;DHT22;1391;46.74287300;11.63683300;2023-06-22T06:09:48;19.90;82.90
2767;DHT22;1391;46.74287300;11.63683300;2023-06-22T06:12:16;19.80;81.90
2767;DHT22;1391;46.74287300;11.63683300;2023-06-22T06:14:43;20.60;83.10
2767;DHT22;1391;46.74287300;11.63683300;2023-06-22T06:17:10;20.30;83.40
2767;DHT22;1391;46.74287300;11.63683300;2023-06-22T06:19:37;20.30;81.50
2767;DHT22;1391;46.74287300;11.63683300;2023-06-22T06:22:06;20.40;76.30
2767;DHT22;1391;46.74287300;11.63683300;2023-06-22T06:24:33;20.60;75.10
2767;DHT22;1391;46.74287300;11.63683300;2023-06-22T06:27:01;20.40;75.90
2767;DHT22;1391;46.74287300;11.63683300;2023-06-22T06:29:30;20.50;73.80
2767;DHT22;1391;46.74287300;11.63683300;2023-06-22T06:31:57;20.40;74.20
2767;DHT22;1391;46.74287300;11.63683300;2023-06-22T06:34:24;20.40;73.00
2767;DHT22;1391;46.74287300;11.63683300;2023-06-22T06:36:52;20.40;71.20
2767;DHT22;1391;46.74287300;11.63683300;2023-06-22T06:39:20;20.50;70.50
2767;DHT22;1391;46.74287300;11.63683300;2023-06-22T06:41:48;20.50;70.60
2767;DHT22;1391;46.74287300;11.63683300;2023-06-22T06:44:15;20.50;69.60
2767;DHT22;1391;46.74287300;11.63683300;2023-06-22T06:46:42;21.30;72.00
2767;DHT22;1391;46.74287300;11.63683300;2023-06-22T06:49:10;21.20;77.60
2767;DHT22;1391;46.74287300;11.63683300;2023-06-22T06:51:37;21.20;74.30
2767;DHT22;1391;46.74287300;11.63683300;2023-06-22T06:54:04;21.40;71.20
2767;DHT22;1391;46.74287300;11.63683300;2023-06-22T06:56:33;21.10;73.70
2767;DHT22;1391;46.74287300;11.63683300;2023-06-22T06:59:00;21.20;72.30
2767;DHT22;1391;46.74287300;11.63683300;2023-06-22T07:01:28;21.30;72.40
2767;DHT22;1391;46.74287300;11.63683300;2023-06-22T07:03:59;21.30;70.00
2767;DHT22;1391;46.74287300;11.63683300;2023-06-22T07:06:26;21.50;66.10
2767;DHT22;1391;46.74287300;11.63683300;2023-06-22T07:08:57;21.20;72.30
2767;DHT22;1391;46.74287300;11.63683300;2023-06-22T07:11:35;21.30;72.00
2767;DHT22;1391;46.74287300;11.63683300;2023-06-22T07:14:04;21.80;74.80
2767;DHT22;1391;46.74287300;11.63683300;2023-06-22T07:16:31;22.00;73.90
2767;DHT22;1391;46.74287300;11.63683300;2023-06-22T07:18:58;22.00;74.60
2767;DHT22;1391;46.74287300;11.63683300;2023-06-22T07:21:26;22.00;72.50
2767;DHT22;1391;46.74287300;11.63683300;2023-06-22T07:23:53;22.00;68.70
2767;DHT22;1391;46.74287300;11.63683300;2023-06-22T07:26:21;21.90;66.50
2767;DHT22;1391;46.74287300;11.63683300;2023-06-22T07:28:49;22.00;63.50
2767;DHT22;1391;46.74287300;11.63683300;2023-06-22T07:31:16;22.00;61.90
2767;DHT22;1391;46.74287300;11.63683300;2023-06-22T07:33:44;22.10;63.50
2767;DHT22;1391;46.74287300;11.63683300;2023-06-22T07:36:11;22.20;60.30
2767;DHT22;1391;46.74287300;11.63683300;2023-06-22T07:38:39;22.10;57.50
2767;DHT22;1391;46.74287300;11.63683300;2023-06-22T07:41:06;21.90;59.60
2767;DHT22;1391;46.74287300;11.63683300;2023-06-22T07:43:33;22.10;61.70
2767;DHT22;1391;46.74287300;11.63683300;2023-06-22T07:46:04;22.20;58.70
2767;DHT22;1391;46.74287300;11.63683300;2023-06-22T07:48:31;22.10;62.30
2767;DHT22;1391;46.74287300;11.63683300;2023-06-22T07:50:58;22.20;58.10
2767;DHT22;1391;46.74287300;11.63683300;2023-06-22T07:53:26;22.20;61.80
2767;DHT22;1391;46.74287300;11.63683300;2023-06-22T07:55:54;22.20;60.30
2767;DHT22;1391;46.74287300;11.63683300;2023-06-22T07:58:21;22.30;60.70
2767;DHT22;1391;46.74287300;11.63683300;2023-06-22T08:00:49;22.70;59.70
2767;DHT22;1391;46.74287300;11.63683300;2023-06-22T08:03:17;22.70;59.40
2767;DHT22;1391;46.74287300;11.63683300;2023-06-22T08:05:45;22.70;57.30
2767;DHT22;1391;46.74287300;11.63683300;2023-06-22T08:08:12;22.30;55.00
2767;DHT22;1391;46.74287300;11.63683300;2023-06-22T08:10:40;22.80;62.00
2767;DHT22;1391;46.74287300;11.63683300;2023-06-22T08:13:08;22.90;59.80
2767;DHT22;1391;46.74287300;11.63683300;2023-06-22T08:15:35;22.90;52.30
2767;DHT22;1391;46.74287300;11.63683300;2023-06-22T08:18:02;22.90;55.40
2767;DHT22;1391;46.74287300;11.63683300;2023-06-22T08:20:31;23.00;53.80
2767;DHT22;1391;46.74287300;11.63683300;2023-06-22T08:22:59;23.00;50.50
2767;DHT22;1391;46.74287300;11.63683300;2023-06-22T08:25:31;23.10;49.30
2767;DHT22;1391;46.74287300;11.63683300;2023-06-22T08:27:58;23.10;48.30
2767;DHT22;1391;46.74287300;11.63683300;2023-06-22T08:30:25;23.20;48.40
2767;DHT22;1391;46.74287300;11.63683300;2023-06-22T08:32:53;23.10;50.10
2767;DHT22;1391;46.74287300;11.63683300;2023-06-22T08:35:21;23.20;49.90
2767;DHT22;1391;46.74287300;11.63683300;2023-06-22T08:37:50;23.60;51.10
2767;DHT22;1391;46.74287300;11.63683300;2023-06-22T08:40:18;23.20;50.00
2767;DHT22;1391;46.74287300;11.63683300;2023-06-22T08:42:46;23.10;52.40
2767;DHT22;1391;46.74287300;11.63683300;2023-06-22T08:45:15;23.20;49.20
2767;DHT22;1391;46.74287300;11.63683300;2023-06-22T08:47:42;23.80;51.70
2767;DHT22;1391;46.74287300;11.63683300;2023-06-22T08:50:10;23.90;46.80
2767;DHT22;1391;46.74287300;11.63683300;2023-06-22T08:52:39;24.00;44.40
2767;DHT22;1391;46.74287300;11.63683300;2023-06-22T08:55:09;24.00;45.20
2767;DHT22;1391;46.74287300;11.63683300;2023-06-22T08:57:37;24.10;44.40
2767;DHT22;1391;46.74287300;11.63683300;2023-06-22T09:00:06;24.80;47.30
2767;DHT22;1391;46.74287300;11.63683300;2023-06-22T09:02:42;24.90;43.30
2767;DHT22;1391;46.74287300;11.63683300;2023-06-22T09:05:10;24.90;45.70
2767;DHT22;1391;46.74287300;11.63683300;2023-06-22T09:07:38;25.00;46.10
2767;DHT22;1391;46.74287300;11.63683300;2023-06-22T09:10:06;25.00;47.00
2767;DHT22;1391;46.74287300;11.63683300;2023-06-22T09:12:35;25.00;46.00
2767;DHT22;1391;46.74287300;11.63683300;2023-06-22T09:15:04;24.90;44.70
2767;DHT22;1391;46.74287300;11.63683300;2023-06-22T09:17:33;25.60;45.80
2767;DHT22;1391;46.74287300;11.63683300;2023-06-22T09:20:03;25.00;42.90
2767;DHT22;1391;46.74287300;11.63683300;2023-06-22T09:22:31;25.10;41.00
2767;DHT22;1391;46.74287300;11.63683300;2023-06-22T09:24:58;25.90;43.00
2767;DHT22;1391;46.74287300;11.63683300;2023-06-22T09:27:26;26.00;41.30
2767;DHT22;1391;46.74287300;11.63683300;2023-06-22T09:29:55;25.80;34.50
2767;DHT22;1391;46.74287300;11.63683300;2023-06-22T09:32:24;25.80;39.10
2767;DHT22;1391;46.74287300;11.63683300;2023-06-22T09:34:51;26.00;36.30
2767;DHT22;1391;46.74287300;11.63683300;2023-06-22T09:37:18;26.10;35.40
2767;DHT22;1391;46.74287300;11.63683300;2023-06-22T09:39:46;25.90;41.40
2767;DHT22;1391;46.74287300;11.63683300;2023-06-22T09:42:13;26.20;34.20
2767;DHT22;1391;46.74287300;11.63683300;2023-06-22T09:44:40;27.00;33.30
2767;DHT22;1391;46.74287300;11.63683300;2023-06-22T09:47:09;26.80;34.50
2767;DHT22;1391;46.74287300;11.63683300;2023-06-22T09:49:36;26.90;31.70
2767;DHT22;1391;46.74287300;11.63683300;2023-06-22T09:52:04;26.90;31.50
2767;DHT22;1391;46.74287300;11.63683300;2023-06-22T09:54:32;27.00;30.00
2767;DHT22;1391;46.74287300;11.63683300;2023-06-22T09:56:59;27.70;28.80
2767;DHT22;1391;46.74287300;11.63683300;2023-06-22T09:59:27;28.60;36.70
2767;DHT22;1391;46.74287300;11.63683300;2023-06-22T10:01:54;28.90;26.60
2767;DHT22;1391;46.74287300;11.63683300;2023-06-22T10:04:23;28.00;27.40
2767;DHT22;1391;46.74287300;11.63683300;2023-06-22T10:06:51;28.20;30.30
2767;DHT22;1391;46.74287300;11.63683300;2023-06-22T10:09:18;27.50;27.30
2767;DHT22;1391;46.74287300;11.63683300;2023-06-22T10:11:46;27.50;28.80
2767;DHT22;1391;46.74287300;11.63683300;2023-06-22T10:14:14;27.70;26.10
2767;DHT22;1391;46.74287300;11.63683300;2023-06-22T10:16:42;27.40;27.20
2767;DHT22;1391;46.74287300;11.63683300;2023-06-22T10:19:09;27.80;27.10
2767;DHT22;1391;46.74287300;11.63683300;2023-06-22T10:21:38;27.60;32.20
2767;DHT22;1391;46.74287300;11.63683300;2023-06-22T10:24:05;27.70;26.70
2767;DHT22;1391;46.74287300;11.63683300;2023-06-22T10:26:34;27.60;26.10
2767;DHT22;1391;46.74287300;11.63683300;2023-06-22T10:29:03;28.10;24.90
2767;DHT22;1391;46.74287300;11.63683300;2023-06-22T10:31:30;28.20;25.80
2767;DHT22;1391;46.74287300;11.63683300;2023-06-22T10:33:57;28.60;22.10
2767;DHT22;1391;46.74287300;11.63683300;2023-06-22T10:36:24;29.30;22.60
2767;DHT22;1391;46.74287300;11.63683300;2023-06-22T10:38:53;30.00;20.40
2767;DHT22;1391;46.74287300;11.63683300;2023-06-22T10:41:21;29.30;21.50
2767;DHT22;1391;46.74287300;11.63683300;2023-06-22T10:43:48;29.90;23.50
2767;DHT22;1391;46.74287300;11.63683300;2023-06-22T10:46:15;29.20;21.80
2767;DHT22;1391;46.74287300;11.63683300;2023-06-22T10:48:43;29.40;22.20
2767;DHT22;1391;46.74287300;11.63683300;2023-06-22T10:51:10;29.00;20.80
2767;DHT22;1391;46.74287300;11.63683300;2023-06-22T10:53:38;29.00;22.50
2767;DHT22;1391;46.74287300;11.63683300;2023-06-22T10:56:06;29.20;21.40
2767;DHT22;1391;46.74287300;11.63683300;2023-06-22T10:58:33;29.20;22.60
2767;DHT22;1391;46.74287300;11.63683300;2023-06-22T11:01:01;29.60;23.20
2767;DHT22;1391;46.74287300;11.63683300;2023-06-22T11:03:28;29.30;20.10
2767;DHT22;1391;46.74287300;11.63683300;2023-06-22T11:05:56;29.40;20.50
2767;DHT22;1391;46.74287300;11.63683300;2023-06-22T11:08:23;30.00;21.30
2767;DHT22;1391;46.74287300;11.63683300;2023-06-22T11:10:51;30.00;17.90
2767;DHT22;1391;46.74287300;11.63683300;2023-06-22T11:13:20;30.40;20.80
2767;DHT22;1391;46.74287300;11.63683300;2023-06-22T11:15:47;30.50;18.20
2767;DHT22;1391;46.74287300;11.63683300;2023-06-22T11:18:14;30.60;20.00
2767;DHT22;1391;46.74287300;11.63683300;2023-06-22T11:20:42;30.80;19.00
2767;DHT22;1391;46.74287300;11.63683300;2023-06-22T11:23:10;30.70;15.80
2767;DHT22;1391;46.74287300;11.63683300;2023-06-22T11:25:38;30.80;15.70
2767;DHT22;1391;46.74287300;11.63683300;2023-06-22T11:28:07;30.80;16.80
2767;DHT22;1391;46.74287300;11.63683300;2023-06-22T11:30:35;29.70;17.10
2767;DHT22;1391;46.74287300;11.63683300;2023-06-22T11:33:03;29.80;17.30
2767;DHT22;1391;46.74287300;11.63683300;2023-06-22T11:35:30;29.70;17.30
2767;DHT22;1391;46.74287300;11.63683300;2023-06-22T11:37:57;29.90;20.10
2767;DHT22;1391;46.74287300;11.63683300;2023-06-22T11:40:24;29.80;18.70
2767;DHT22;1391;46.74287300;11.63683300;2023-06-22T11:42:52;29.90;19.00
2767;DHT22;1391;46.74287300;11.63683300;2023-06-22T11:45:19;29.50;19.10
2767;DHT22;1391;46.74287300;11.63683300;2023-06-22T11:47:48;29.70;20.50
2767;DHT22;1391;46.74287300;11.63683300;2023-06-22T11:50:15;30.00;18.10
2767;DHT22;1391;46.74287300;11.63683300;2023-06-22T11:52:42;29.70;19.00
2767;DHT22;1391;46.74287300;11.63683300;2023-06-22T11:55:09;30.00;19.00
2767;DHT22;1391;46.74287300;11.63683300;2023-06-22T11:57:38;30.70;20.60
2767;DHT22;1391;46.74287300;11.63683300;2023-06-22T12:00:06;30.50;17.50
2767;DHT22;1391;46.74287300;11.63683300;2023-06-22T12:02:41;30.70;18.00
2767;DHT22;1391;46.74287300;11.63683300;2023-06-22T12:05:10;30.70;19.50
2767;DHT22;1391;46.74287300;11.63683300;2023-06-22T12:07:38;30.50;19.10
2767;DHT22;1391;46.74287300;11.63683300;2023-06-22T12:10:06;30.80;19.20
2767;DHT22;1391;46.74287300;11.63683300;2023-06-22T12:12:33;30.70;16.70
2767;DHT22;1391;46.74287300;11.63683300;2023-06-22T12:15:01;30.80;17.80
2767;DHT22;1391;46.74287300;11.63683300;2023-06-22T12:17:29;31.00;18.90
2767;DHT22;1391;46.74287300;11.63683300;2023-06-22T12:19:56;30.90;17.20
2767;DHT22;1391;46.74287300;11.63683300;2023-06-22T12:22:25;30.80;17.50
2767;DHT22;1391;46.74287300;11.63683300;2023-06-22T12:24:53;31.10;14.20
2767;DHT22;1391;46.74287300;11.63683300;2023-06-22T12:27:21;31.10;13.20
2767;DHT22;1391;46.74287300;11.63683300;2023-06-22T12:29:48;31.00;14.30
2767;DHT22;1391;46.74287300;11.63683300;2023-06-22T12:32:15;31.20;16.10
2767;DHT22;1391;46.74287300;11.63683300;2023-06-22T12:34:43;31.80;15.30
2767;DHT22;1391;46.74287300;11.63683300;2023-06-22T12:37:10;32.20;14.10
2767;DHT22;1391;46.74287300;11.63683300;2023-06-22T12:39:40;32.10;15.00
2767;DHT22;1391;46.74287300;11.63683300;2023-06-22T12:42:07;32.40;14.60
2767;DHT22;1391;46.74287300;11.63683300;2023-06-22T12:44:37;32.70;12.60
2767;DHT22;1391;46.74287300;11.63683300;2023-06-22T12:47:06;32.70;10.60
2767;DHT22;1391;46.74287300;11.63683300;2023-06-22T12:49:34;32.70;10.20
2767;DHT22;1391;46.74287300;11.63683300;2023-06-22T12:52:02;32.90;8.20
2767;DHT22;1391;46.74287300;11.63683300;2023-06-22T12:54:29;33.30;8.60
2767;DHT22;1391;46.74287300;11.63683300;2023-06-22T12:56:58;33.50;8.30
2767;DHT22;1391;46.74287300;11.63683300;2023-06-22T12:59:25;33.10;8.20
2767;DHT22;1391;46.74287300;11.63683300;2023-06-22T13:01:52;33.60;4.30
2767;DHT22;1391;46.74287300;11.63683300;2023-06-22T13:04:20;33.10;6.30
2767;DHT22;1391;46.74287300;11.63683300;2023-06-22T13:06:47;33.00;3.00
2767;DHT22;1391;46.74287300;11.63683300;2023-06-22T13:09:15;33.00;2.80
2767;DHT22;1391;46.74287300;11.63683300;2023-06-22T13:11:44;33.60;2.80
2767;DHT22;1391;46.74287300;11.63683300;2023-06-22T13:14:12;33.20;1.60
2767;DHT22;1391;46.74287300;11.63683300;2023-06-22T13:16:41;33.80;1.00
2767;DHT22;1391;46.74287300;11.63683300;2023-06-22T13:19:08;33.60;1.30
2767;DHT22;1391;46.74287300;11.63683300;2023-06-22T13:21:36;33.60;1.20
2767;DHT22;1391;46.74287300;11.63683300;2023-06-22T13:24:03;33.40;1.00
2767;DHT22;1391;46.74287300;11.63683300;2023-06-22T13:26:31;33.40;1.00
2767;DHT22;1391;46.74287300;11.63683300;2023-06-22T13:29:04;33.40;1.00
2767;DHT22;1391;46.74287300;11.63683300;2023-06-22T13:31:33;33.30;1.00
2767;DHT22;1391;46.74287300;11.63683300;2023-06-22T13:34:00;33.70;1.00
2767;DHT22;1391;46.74287300;11.63683300;2023-06-22T13:36:27;34.10;1.00
2767;DHT22;1391;46.74287300;11.63683300;2023-06-22T13:38:56;33.40;1.00